Time;durP1;ratioP1;P1;durP2;ratioP2;P2;SDS_P1;SDS_P2;PMS_P1;PMS_P2;Temp;Humidity;BMP_temperature;BMP_pressure;BME280_temperature;BME280_humidity;BME280_pressure;Samples;Min_cycle;Max_cycle;Signal;HPM_P1;HPM_P2
2024/01/21 00:01:29;;;;;;;12.02;5.50;;;;;;;;;;5004792;28;20045;-64
2024/01/21 00:03:55;;;;;;;12.35;6.63;;;;;;;;;;5021984;28;20091;-65
2024/01/21 00:06:21;;;;;;;11.27;5.68;;;;;;;;;;5022274;28;20033;-65
2024/01/21 00:08:47;;;;;;;11.55;6.18;;;;;;;;;;5021613;28;20048;-64
2024/01/21 00:11:13;;;;;;;10.00;4.88;;;;;;;;;;5001510;28;20029;-64
2024/01/21 00:13:39;;;;;;;10.68;5.35;;;;;;;;;;5020986;28;20044;-65
2024/01/21 00:16:06;;;;;;;13.32;6.47;;;;;;;;;;5019689;28;20065;-65
2024/01/21 00:18:32;;;;;;;9.52;5.55;;;;;;;;;;5020667;28;20069;-64
2024/01/21 00:20:58;;;;;;;10.68;5.78;;;;;;;;;;5021813;28;20084;-65
2024/01/21 00:23:24;;;;;;;10.30;5.70;;;;;;;;;;5022939;28;20515;-65
2024/01/21 00:25:50;;;;;;;10.20;5.25;;;;;;;;;;5022558;28;20040;-64
2024/01/21 00:28:16;;;;;;;11.75;5.72;;;;;;;;;;5021202;28;20033;-64
2024/01/21 00:30:42;;;;;;;10.55;5.55;;;;;;;;;;5022034;28;20038;-64
2024/01/21 00:33:08;;;;;;;9.50;5.15;;;;;;;;;;5020379;28;20056;-64
2024/01/21 00:35:34;;;;;;;13.20;6.22;;;;;;;;;;5021642;28;20047;-64
2024/01/21 00:38:00;;;;;;;13.88;6.47;;;;;;;;;;5019452;28;20037;-64
2024/01/21 00:40:26;;;;;;;11.88;5.85;;;;;;;;;;5020509;28;20484;-64
2024/01/21 00:42:56;;;;;;;12.95;6.00;;;;;;;;;;5021086;28;20503;-64
2024/01/21 00:45:22;;;;;;;11.57;5.78;;;;;;;;;;5020079;28;20036;-64
2024/01/21 00:47:48;;;;;;;10.30;5.85;;;;;;;;;;5021007;28;20039;-64
2024/01/21 00:50:14;;;;;;;12.85;7.03;;;;;;;;;;5003334;28;20517;-64
2024/01/21 00:52:40;;;;;;;13.02;5.75;;;;;;;;;;5019691;28;20680;-64
2024/01/21 00:55:06;;;;;;;10.45;5.68;;;;;;;;;;5018851;28;20724;-64
2024/01/21 00:57:32;;;;;;;12.35;5.30;;;;;;;;;;5019471;28;20037;-64
2024/01/21 00:59:58;;;;;;;12.80;5.97;;;;;;;;;;5020457;28;20037;-64
2024/01/21 01:02:24;;;;;;;10.75;6.10;;;;;;;;;;5020025;28;20132;-64
2024/01/21 01:04:51;;;;;;;10.07;5.45;;;;;;;;;;5020770;28;20144;-64
2024/01/21 01:07:17;;;;;;;12.50;6.35;;;;;;;;;;5021052;28;20063;-64
2024/01/21 01:09:43;;;;;;;11.50;5.82;;;;;;;;;;5022285;28;20067;-64
2024/01/21 01:12:09;;;;;;;11.77;6.28;;;;;;;;;;5021127;28;20048;-64
2024/01/21 01:14:35;;;;;;;12.80;7.13;;;;;;;;;;5020735;28;20988;-64
2024/01/21 01:17:01;;;;;;;12.02;5.70;;;;;;;;;;5021749;28;20148;-64
2024/01/21 01:19:27;;;;;;;12.65;6.28;;;;;;;;;;5020453;28;20045;-64
2024/01/21 01:21:53;;;;;;;10.05;5.45;;;;;;;;;;5019886;28;20041;-64
2024/01/21 01:24:21;;;;;;;10.85;5.68;;;;;;;;;;5021369;28;20376;-64
2024/01/21 01:26:47;;;;;;;10.98;5.22;;;;;;;;;;5021186;28;20029;-64
2024/01/21 01:29:13;;;;;;;13.30;5.57;;;;;;;;;;5021630;28;20103;-64
2024/01/21 01:31:39;;;;;;;11.77;6.28;;;;;;;;;;5020288;28;20037;-64
2024/01/21 01:34:05;;;;;;;12.80;5.28;;;;;;;;;;5019532;28;20033;-64
2024/01/21 01:36:31;;;;;;;10.65;5.85;;;;;;;;;;5020120;28;20037;-64
2024/01/21 01:38:57;;;;;;;12.45;5.47;;;;;;;;;;5019557;28;20033;-64
2024/01/21 01:41:23;;;;;;;7.72;4.50;;;;;;;;;;5004926;28;20040;-64
2024/01/21 01:43:49;;;;;;;11.02;5.65;;;;;;;;;;5018400;28;20122;-64
2024/01/21 01:46:16;;;;;;;8.88;4.65;;;;;;;;;;5019455;28;20034;-64
2024/01/21 01:48:42;;;;;;;10.50;5.05;;;;;;;;;;5003405;28;20369;-64
2024/01/21 01:51:08;;;;;;;11.40;5.13;;;;;;;;;;5020106;28;20033;-64
2024/01/21 01:53:36;;;;;;;12.35;5.32;;;;;;;;;;5019263;28;20033;-64
2024/01/21 01:56:02;;;;;;;11.85;5.50;;;;;;;;;;5020917;28;20099;-64
2024/01/21 01:58:29;;;;;;;11.55;5.15;;;;;;;;;;5021324;28;20076;-64
2024/01/21 02:00:56;;;;;;;12.20;5.45;;;;;;;;;;5021494;28;20087;-64
2024/01/21 02:03:23;;;;;;;10.98;5.38;;;;;;;;;;5021148;28;20132;-64
2024/01/21 02:05:49;;;;;;;9.93;5.28;;;;;;;;;;5021257;28;20862;-64
2024/01/21 02:08:15;;;;;;;10.23;5.35;;;;;;;;;;5023424;28;20118;-64
2024/01/21 02:10:41;;;;;;;10.10;4.95;;;;;;;;;;5023699;28;21010;-64
2024/01/21 02:13:07;;;;;;;11.07;5.35;;;;;;;;;;5024714;28;20037;-64
2024/01/21 02:15:33;;;;;;;9.75;4.78;;;;;;;;;;5024021;28;20033;-64
2024/01/21 02:17:59;;;;;;;10.52;5.10;;;;;;;;;;5023134;28;20036;-64
2024/01/21 02:20:25;;;;;;;10.52;4.90;;;;;;;;;;5024063;28;20052;-64
2024/01/21 02:22:52;;;;;;;8.98;4.43;;;;;;;;;;5024611;28;20041;-64
2024/01/21 02:25:18;;;;;;;11.90;4.75;;;;;;;;;;5007463;28;20037;-64
2024/01/21 02:27:44;;;;;;;11.10;4.68;;;;;;;;;;5022415;28;20033;-64
2024/01/21 02:30:10;;;;;;;8.82;4.18;;;;;;;;;;5024573;28;20110;-64
2024/01/21 02:32:36;;;;;;;9.82;5.10;;;;;;;;;;5023750;28;20178;-64
2024/01/21 02:35:02;;;;;;;9.48;4.60;;;;;;;;;;5023657;28;20060;-64
2024/01/21 02:37:28;;;;;;;11.00;4.10;;;;;;;;;;5023723;28;20116;-64
2024/01/21 02:39:54;;;;;;;9.98;4.47;;;;;;;;;;5022810;28;20093;-65
2024/01/21 02:42:21;;;;;;;10.05;4.57;;;;;;;;;;5024213;28;20792;-64
2024/01/21 02:44:47;;;;;;;9.20;4.63;;;;;;;;;;5023246;28;20705;-64
2024/01/21 02:47:13;;;;;;;9.40;4.63;;;;;;;;;;5023144;28;20155;-64
2024/01/21 02:49:39;;;;;;;9.05;4.18;;;;;;;;;;5023351;28;20125;-64
2024/01/21 02:52:05;;;;;;;9.45;4.20;;;;;;;;;;5023303;28;20934;-64
2024/01/21 02:54:31;;;;;;;9.68;4.50;;;;;;;;;;5023293;28;20802;-64
2024/01/21 02:56:57;;;;;;;9.95;4.72;;;;;;;;;;5021715;28;20036;-64
2024/01/21 02:59:23;;;;;;;8.50;4.30;;;;;;;;;;5021667;28;20037;-64
2024/01/21 03:01:49;;;;;;;8.82;4.00;;;;;;;;;;5023254;28;20048;-64
2024/01/21 03:04:15;;;;;;;8.57;4.30;;;;;;;;;;5023104;28;20033;-64
2024/01/21 03:06:42;;;;;;;8.70;3.75;;;;;;;;;;5024240;28;20025;-64
2024/01/21 03:09:08;;;;;;;8.85;4.25;;;;;;;;;;5022825;28;20033;-64
2024/01/21 03:11:35;;;;;;;8.20;3.97;;;;;;;;;;5021681;28;20733;-64
2024/01/21 03:14:01;;;;;;;9.18;4.10;;;;;;;;;;5005533;28;20924;-64
2024/01/21 03:16:27;;;;;;;7.40;3.65;;;;;;;;;;5023848;28;20021;-64
2024/01/21 03:18:53;;;;;;;9.70;3.63;;;;;;;;;;5021941;28;20370;-64
2024/01/21 03:21:20;;;;;;;8.45;3.65;;;;;;;;;;5023054;28;20423;-64
2024/01/21 03:23:46;;;;;;;8.02;3.38;;;;;;;;;;5020734;28;20040;-64
2024/01/21 03:26:12;;;;;;;7.10;3.03;;;;;;;;;;5022580;28;20095;-64
2024/01/21 03:28:38;;;;;;;8.55;3.28;;;;;;;;;;5023804;28;20071;-64
2024/01/21 03:31:04;;;;;;;7.07;3.30;;;;;;;;;;5022697;28;20072;-64
2024/01/21 03:33:30;;;;;;;8.15;3.67;;;;;;;;;;5023316;28;20080;-64
2024/01/21 03:35:56;;;;;;;6.50;3.25;;;;;;;;;;5022804;28;21403;-64
2024/01/21 03:38:22;;;;;;;6.85;3.28;;;;;;;;;;5023117;28;20055;-64
2024/01/21 03:40:48;;;;;;;7.50;3.28;;;;;;;;;;5023305;28;21889;-64
2024/01/21 03:43:14;;;;;;;7.53;3.20;;;;;;;;;;5021850;28;20048;-64
2024/01/21 03:45:40;;;;;;;7.35;3.30;;;;;;;;;;5021633;28;20032;-64
2024/01/21 03:48:07;;;;;;;6.22;2.75;;;;;;;;;;5021687;28;20033;-64
2024/01/21 03:50:33;;;;;;;6.85;3.10;;;;;;;;;;5022274;28;20095;-64
2024/01/21 03:52:59;;;;;;;8.13;3.25;;;;;;;;;;5023717;28;20932;-64
2024/01/21 03:55:25;;;;;;;7.45;3.25;;;;;;;;;;5022977;28;20778;-64
2024/01/21 03:57:51;;;;;;;6.47;3.08;;;;;;;;;;5022063;28;20041;-64
2024/01/21 04:00:17;;;;;;;7.63;2.95;;;;;;;;;;5021952;28;21775;-64
2024/01/21 04:02:44;;;;;;;8.15;2.78;;;;;;;;;;5022253;28;20043;-64
2024/01/21 04:05:10;;;;;;;6.72;3.00;;;;;;;;;;5005559;28;20033;-64
2024/01/21 04:07:36;;;;;;;7.38;2.97;;;;;;;;;;5021534;28;20059;-64
2024/01/21 04:10:03;;;;;;;6.70;2.75;;;;;;;;;;5022716;28;21048;-64
2024/01/21 04:12:29;;;;;;;6.68;2.70;;;;;;;;;;5022134;28;20131;-64
2024/01/21 04:14:55;;;;;;;6.10;2.80;;;;;;;;;;5020835;28;20045;-64
2024/01/21 04:17:23;;;;;;;5.22;2.55;;;;;;;;;;5021350;28;22157;-64
2024/01/21 04:19:49;;;;;;;5.47;2.38;;;;;;;;;;5022160;28;20040;-63
2024/01/21 04:22:18;;;;;;;6.38;2.65;;;;;;;;;;5021821;28;20046;-64
2024/01/21 04:24:44;;;;;;;5.32;2.50;;;;;;;;;;5022273;28;20033;-64
2024/01/21 04:27:10;;;;;;;5.60;2.22;;;;;;;;;;5021480;28;20548;-64
2024/01/21 04:29:36;;;;;;;7.10;2.42;;;;;;;;;;5021849;28;20064;-62
2024/01/21 04:32:03;;;;;;;5.85;2.30;;;;;;;;;;5020960;28;20052;-62
2024/01/21 04:34:29;;;;;;;4.82;2.00;;;;;;;;;;5017607;28;20041;-62
2024/01/21 04:36:55;;;;;;;4.50;2.13;;;;;;;;;;5019048;28;20822;-62
2024/01/21 04:39:22;;;;;;;5.95;2.33;;;;;;;;;;5020637;28;20033;-62
2024/01/21 04:41:48;;;;;;;6.88;2.58;;;;;;;;;;5021351;28;20079;-62
2024/01/21 04:44:14;;;;;;;5.63;2.20;;;;;;;;;;5019903;28;20039;-62
2024/01/21 04:46:40;;;;;;;6.32;2.42;;;;;;;;;;5019524;28;20512;-62
2024/01/21 04:49:06;;;;;;;5.40;2.20;;;;;;;;;;5020800;28;20160;-62
2024/01/21 04:51:32;;;;;;;6.13;1.80;;;;;;;;;;5020890;28;20144;-62
2024/01/21 04:53:58;;;;;;;7.03;2.55;;;;;;;;;;5021448;28;20072;-62
2024/01/21 04:56:24;;;;;;;4.93;2.10;;;;;;;;;;5021312;28;20044;-62
2024/01/21 04:58:50;;;;;;;5.35;2.40;;;;;;;;;;5021475;28;20935;-62
2024/01/21 05:01:17;;;;;;;5.88;1.95;;;;;;;;;;5019730;28;20033;-62
2024/01/21 05:03:43;;;;;;;5.57;1.85;;;;;;;;;;5021531;28;20135;-62
2024/01/21 05:06:09;;;;;;;4.30;2.00;;;;;;;;;;5020275;28;20098;-62
2024/01/21 05:08:35;;;;;;;5.47;2.03;;;;;;;;;;5019736;28;20044;-62
2024/01/21 05:11:01;;;;;;;5.63;1.92;;;;;;;;;;5004711;28;20037;-62
2024/01/21 05:13:27;;;;;;;4.50;2.08;;;;;;;;;;5017291;28;20112;-62
2024/01/21 05:15:53;;;;;;;5.97;2.08;;;;;;;;;;5019495;28;20044;-62
2024/01/21 05:18:20;;;;;;;5.53;2.15;;;;;;;;;;5020770;28;20044;-62
2024/01/21 05:20:46;;;;;;;6.10;2.15;;;;;;;;;;5019099;28;20057;-62
2024/01/21 05:23:12;;;;;;;4.45;1.80;;;;;;;;;;5022740;28;20041;-63
2024/01/21 05:25:39;;;;;;;5.55;2.08;;;;;;;;;;5022101;28;20037;-63
2024/01/21 05:28:05;;;;;;;4.57;1.88;;;;;;;;;;5023031;28;21772;-62
2024/01/21 05:30:31;;;;;;;4.68;2.15;;;;;;;;;;5021365;28;20687;-62
2024/01/21 05:32:57;;;;;;;5.07;2.00;;;;;;;;;;5022511;28;20064;-62
2024/01/21 05:35:23;;;;;;;4.55;2.00;;;;;;;;;;5022597;28;20037;-62
2024/01/21 05:37:49;;;;;;;3.70;1.70;;;;;;;;;;5022403;28;20048;-62
2024/01/21 05:40:16;;;;;;;6.40;2.30;;;;;;;;;;5022499;28;20048;-62
2024/01/21 05:42:42;;;;;;;8.32;2.35;;;;;;;;;;5024904;28;20033;-62
2024/01/21 05:45:08;;;;;;;6.80;2.25;;;;;;;;;;5026824;28;20040;-62
2024/01/21 05:47:34;;;;;;;5.47;2.38;;;;;;;;;;5026417;28;20911;-62
2024/01/21 05:50:00;;;;;;;6.45;2.13;;;;;;;;;;5027137;28;20029;-62
2024/01/21 05:52:26;;;;;;;7.45;2.47;;;;;;;;;;5027493;28;20310;-62
2024/01/21 05:54:52;;;;;;;7.40;2.10;;;;;;;;;;5025906;28;20373;-62
2024/01/21 05:57:19;;;;;;;6.40;2.40;;;;;;;;;;5026655;28;20120;-62
2024/01/21 05:59:45;;;;;;;5.25;2.30;;;;;;;;;;5026836;28;20051;-62
2024/01/21 06:02:11;;;;;;;6.18;2.50;;;;;;;;;;5025914;28;20123;-62
2024/01/21 06:04:39;;;;;;;5.32;2.22;;;;;;;;;;5026214;28;20095;-62
2024/01/21 06:07:05;;;;;;;7.22;3.00;;;;;;;;;;5025628;28;20087;-62
2024/01/21 06:09:31;;;;;;;5.07;2.42;;;;;;;;;;5024203;28;20029;-62
2024/01/21 06:11:57;;;;;;;5.82;2.42;;;;;;;;;;5025074;28;20143;-62
2024/01/21 06:14:24;;;;;;;8.70;2.30;;;;;;;;;;5025201;28;20051;-62
2024/01/21 06:16:52;;;;;;;7.05;2.80;;;;;;;;;;5024893;28;20124;-62
2024/01/21 06:19:18;;;;;;;7.32;2.70;;;;;;;;;;5026418;28;20809;-62
2024/01/21 06:21:45;;;;;;;7.28;2.60;;;;;;;;;;5024467;28;20051;-62
2024/01/21 06:24:12;;;;;;;5.43;2.45;;;;;;;;;;5023788;28;20490;-62
2024/01/21 06:26:40;;;;;;;7.30;3.03;;;;;;;;;;5023333;28;20124;-62
2024/01/21 06:29:06;;;;;;;6.90;2.90;;;;;;;;;;5024550;28;20045;-62
2024/01/21 06:31:32;;;;;;;6.18;2.40;;;;;;;;;;5025313;28;21071;-63
2024/01/21 06:33:59;;;;;;;7.30;2.78;;;;;;;;;;5023735;28;21464;-62
2024/01/21 06:36:25;;;;;;;6.32;2.80;;;;;;;;;;5025207;28;21010;-62
2024/01/21 06:38:51;;;;;;;5.85;2.45;;;;;;;;;;5024451;28;20036;-62
2024/01/21 06:41:18;;;;;;;5.82;2.42;;;;;;;;;;5025117;28;20068;-62
2024/01/21 06:43:44;;;;;;;6.75;2.83;;;;;;;;;;5006777;28;20036;-62
2024/01/21 06:46:10;;;;;;;6.55;2.92;;;;;;;;;;5026277;28;20040;-62
2024/01/21 06:48:36;;;;;;;6.65;2.63;;;;;;;;;;5027460;28;20352;-62
2024/01/21 06:51:21;;;;;;;7.65;3.05;;;;;;;;;;5027332;28;20480;-63
2024/01/21 06:53:47;;;;;;;7.20;2.88;;;;;;;;;;5027721;28;20496;-62
2024/01/21 06:56:13;;;;;;;8.30;3.17;;;;;;;;;;5027594;28;21035;-62
2024/01/21 06:58:39;;;;;;;7.25;2.75;;;;;;;;;;5025239;28;20848;-62
2024/01/21 07:01:05;;;;;;;6.43;2.92;;;;;;;;;;5027511;28;20802;-62
2024/01/21 07:03:32;;;;;;;6.45;2.88;;;;;;;;;;5027090;28;20156;-62
2024/01/21 07:05:58;;;;;;;8.10;3.42;;;;;;;;;;5024083;28;20508;-62
2024/01/21 07:08:25;;;;;;;7.20;3.08;;;;;;;;;;5025271;28;20156;-63
2024/01/21 07:10:51;;;;;;;7.25;3.00;;;;;;;;;;5025323;28;20671;-63
2024/01/21 07:13:17;;;;;;;7.15;3.28;;;;;;;;;;5024829;28;20041;-65
2024/01/21 07:15:43;;;;;;;6.43;2.80;;;;;;;;;;5024231;28;20110;-65
2024/01/21 07:18:09;;;;;;;6.60;3.38;;;;;;;;;;5024734;28;20037;-65
2024/01/21 07:20:35;;;;;;;8.30;3.30;;;;;;;;;;5023797;28;20059;-65
2024/01/21 07:23:01;;;;;;;6.38;3.05;;;;;;;;;;5023137;28;20052;-65
2024/01/21 07:25:27;;;;;;;8.35;2.80;;;;;;;;;;5024184;28;20037;-65
2024/01/21 07:27:53;;;;;;;8.20;3.50;;;;;;;;;;5024330;28;20029;-66
2024/01/21 07:30:20;;;;;;;8.43;3.30;;;;;;;;;;5025056;28;20033;-65
2024/01/21 07:32:46;;;;;;;11.07;3.50;;;;;;;;;;5022653;28;20037;-66
2024/01/21 07:35:12;;;;;;;8.18;3.78;;;;;;;;;;5023023;28;20984;-65
2024/01/21 07:37:38;;;;;;;6.68;3.15;;;;;;;;;;5023434;28;20565;-65
2024/01/21 07:40:05;;;;;;;7.95;3.78;;;;;;;;;;5006672;28;20417;-65
2024/01/21 07:42:31;;;;;;;6.60;3.30;;;;;;;;;;5024228;28;20049;-64
2024/01/21 07:44:58;;;;;;;8.57;3.50;;;;;;;;;;5024177;28;20044;-65
2024/01/21 07:47:24;;;;;;;8.60;3.22;;;;;;;;;;5024344;28;20021;-63
2024/01/21 07:49:50;;;;;;;8.43;3.20;;;;;;;;;;5022466;28;20688;-65
2024/01/21 07:52:17;;;;;;;7.43;3.42;;;;;;;;;;5026601;28;20033;-65
2024/01/21 07:54:44;;;;;;;10.98;4.07;;;;;;;;;;5026849;28;20141;-65
2024/01/21 07:57:10;;;;;;;9.50;3.95;;;;;;;;;;5027257;28;20040;-65
2024/01/21 07:59:36;;;;;;;7.43;3.78;;;;;;;;;;5016407;28;21951;-65
2024/01/21 08:02:02;;;;;;;7.70;3.83;;;;;;;;;;5017695;28;20040;-65
2024/01/21 08:04:28;;;;;;;6.53;3.00;;;;;;;;;;5016949;28;20188;-65
2024/01/21 08:06:54;;;;;;;7.45;3.42;;;;;;;;;;5017202;28;20423;-65
2024/01/21 08:09:21;;;;;;;8.20;3.70;;;;;;;;;;5019033;28;20044;-65
2024/01/21 08:11:47;;;;;;;8.57;3.67;;;;;;;;;;5018394;28;20136;-65
2024/01/21 08:14:13;;;;;;;8.13;3.53;;;;;;;;;;5018312;28;20029;-65
2024/01/21 08:16:39;;;;;;;8.40;3.78;;;;;;;;;;5018352;28;20025;-65
2024/01/21 08:19:05;;;;;;;7.78;3.70;;;;;;;;;;5018614;28;20037;-65
2024/01/21 08:21:31;;;;;;;8.85;4.00;;;;;;;;;;5018431;28;20057;-65
2024/01/21 08:23:58;;;;;;;9.80;3.90;;;;;;;;;;5016632;28;20041;-65
2024/01/21 08:26:24;;;;;;;9.45;4.20;;;;;;;;;;5018203;28;20044;-65
2024/01/21 08:28:50;;;;;;;8.40;3.72;;;;;;;;;;5017997;28;20029;-65
2024/01/21 08:31:16;;;;;;;7.38;3.25;;;;;;;;;;5015511;28;20036;-65
2024/01/21 08:33:42;;;;;;;7.72;3.75;;;;;;;;;;5017995;28;20090;-65
2024/01/21 08:36:08;;;;;;;8.57;3.63;;;;;;;;;;5018550;28;20045;-65
2024/01/21 08:38:35;;;;;;;8.38;4.07;;;;;;;;;;5018595;28;20029;-65
2024/01/21 08:41:01;;;;;;;7.95;3.58;;;;;;;;;;5017279;28;20045;-65
2024/01/21 08:43:27;;;;;;;11.43;4.30;;;;;;;;;;5017787;28;20056;-66
2024/01/21 08:45:53;;;;;;;9.48;4.07;;;;;;;;;;5018575;28;20055;-65
2024/01/21 08:48:20;;;;;;;8.75;3.90;;;;;;;;;;4999539;28;20123;-65
2024/01/21 08:50:46;;;;;;;8.07;3.55;;;;;;;;;;5017551;28;20033;-66
2024/01/21 08:53:12;;;;;;;7.15;3.15;;;;;;;;;;5016685;28;20045;-65
2024/01/21 08:55:38;;;;;;;7.57;4.07;;;;;;;;;;5018184;28;20088;-65
2024/01/21 08:58:04;;;;;;;10.85;4.07;;;;;;;;;;5018670;28;20068;-65
2024/01/21 09:00:30;;;;;;;8.48;4.15;;;;;;;;;;5018240;28;20075;-66
2024/01/21 09:02:56;;;;;;;9.27;4.20;;;;;;;;;;5016187;28;20041;-66
2024/01/21 09:05:22;;;;;;;9.05;4.00;;;;;;;;;;5018977;28;20033;-65
2024/01/21 09:07:48;;;;;;;9.00;4.07;;;;;;;;;;5017432;28;20118;-66
2024/01/21 09:10:14;;;;;;;9.10;4.15;;;;;;;;;;5017743;28;20080;-66
2024/01/21 09:12:40;;;;;;;8.43;4.10;;;;;;;;;;4997907;28;20056;-65
2024/01/21 09:15:07;;;;;;;8.20;3.97;;;;;;;;;;5015053;28;20623;-66
2024/01/21 09:17:33;;;;;;;8.85;4.50;;;;;;;;;;5019346;28;20037;-66
2024/01/21 09:19:59;;;;;;;10.18;4.25;;;;;;;;;;5018593;28;20052;-65
2024/01/21 09:22:25;;;;;;;10.57;4.97;;;;;;;;;;5019424;28;20065;-65
2024/01/21 09:24:52;;;;;;;7.97;4.03;;;;;;;;;;5019293;28;20049;-66
2024/01/21 09:27:18;;;;;;;11.38;3.95;;;;;;;;;;5019678;28;20111;-65
2024/01/21 09:29:44;;;;;;;8.90;3.95;;;;;;;;;;5002287;28;20154;-65
2024/01/21 09:32:13;;;;;;;9.90;4.00;;;;;;;;;;5019705;28;20052;-65
2024/01/21 09:34:39;;;;;;;6.80;3.75;;;;;;;;;;5019703;28;20091;-65
2024/01/21 09:37:08;;;;;;;8.13;4.53;;;;;;;;;;5019394;28;20034;-65
2024/01/21 09:39:34;;;;;;;9.43;4.47;;;;;;;;;;5018112;28;20068;-66
2024/01/21 09:42:00;;;;;;;9.48;4.43;;;;;;;;;;5020439;28;20143;-65
2024/01/21 09:44:28;;;;;;;7.90;3.95;;;;;;;;;;5019552;28;20037;-66
2024/01/21 09:46:58;;;;;;;12.73;3.92;;;;;;;;;;5021053;28;20036;-66
2024/01/21 09:49:24;;;;;;;10.38;4.75;;;;;;;;;;5021411;28;20142;-65
2024/01/21 09:51:51;;;;;;;8.50;4.20;;;;;;;;;;5002053;28;20030;-66
2024/01/21 09:54:17;;;;;;;8.80;4.30;;;;;;;;;;5021655;28;20092;-65
2024/01/21 09:56:44;;;;;;;10.02;4.88;;;;;;;;;;5019761;28;20084;-66
2024/01/21 09:59:10;;;;;;;8.65;4.60;;;;;;;;;;5020491;28;21617;-66
2024/01/21 10:01:43;;;;;;;9.55;4.85;;;;;;;;;;5019800;28;21247;-66
2024/01/21 10:04:14;;;;;;;9.52;4.50;;;;;;;;;;5021223;28;20124;-66
2024/01/21 10:06:40;;;;;;;9.07;4.63;;;;;;;;;;5021792;28;20037;-66
2024/01/21 10:09:16;;;;;;;8.70;4.50;;;;;;;;;;5021769;28;20017;-66
2024/01/21 10:11:42;;;;;;;9.65;4.47;;;;;;;;;;5018434;28;20028;-65
2024/01/21 10:14:08;;;;;;;12.00;4.63;;;;;;;;;;5017146;28;20037;-66
2024/01/21 10:16:34;;;;;;;8.68;4.38;;;;;;;;;;5015932;28;20112;-66
2024/01/21 10:19:00;;;;;;;8.32;4.03;;;;;;;;;;5017663;28;20525;-69
2024/01/21 10:21:26;;;;;;;8.52;4.40;;;;;;;;;;5013251;28;20057;-66
2024/01/21 10:23:52;;;;;;;8.77;4.82;;;;;;;;;;4997717;28;20122;-65
2024/01/21 10:26:18;;;;;;;10.15;4.93;;;;;;;;;;5013528;28;20041;-65
2024/01/21 10:28:44;;;;;;;8.82;4.82;;;;;;;;;;5015752;28;20041;-65
2024/01/21 10:31:10;;;;;;;9.10;4.90;;;;;;;;;;5017607;28;20082;-65
2024/01/21 10:33:36;;;;;;;9.88;4.82;;;;;;;;;;5014370;28;20045;-66
2024/01/21 10:36:03;;;;;;;10.30;4.60;;;;;;;;;;5020265;28;20041;-66
2024/01/21 10:38:29;;;;;;;9.27;4.70;;;;;;;;;;5026574;28;20099;-66
2024/01/21 10:40:56;;;;;;;9.93;5.05;;;;;;;;;;5024772;28;20127;-66
2024/01/21 10:43:22;;;;;;;9.77;5.15;;;;;;;;;;5027352;28;20708;-66
2024/01/21 10:45:50;;;;;;;9.98;5.70;;;;;;;;;;5022741;28;20040;-66
2024/01/21 10:48:16;;;;;;;10.75;5.75;;;;;;;;;;5023127;28;20055;-65
2024/01/21 10:50:43;;;;;;;9.48;5.28;;;;;;;;;;5022760;28;20094;-65
2024/01/21 10:53:13;;;;;;;9.68;4.85;;;;;;;;;;5023565;28;20067;-65
2024/01/21 10:55:40;;;;;;;12.23;5.03;;;;;;;;;;5007712;28;20033;-65
2024/01/21 10:58:06;;;;;;;10.05;5.25;;;;;;;;;;5007458;28;20032;-66
2024/01/21 11:00:32;;;;;;;9.82;5.00;;;;;;;;;;5023574;28;20051;-65
2024/01/21 11:03:17;;;;;;;10.20;5.25;;;;;;;;;;5023510;28;20044;-66
2024/01/21 11:05:43;;;;;;;9.23;4.93;;;;;;;;;;5019843;28;20058;-66
2024/01/21 11:08:09;;;;;;;15.35;6.78;;;;;;;;;;5022352;28;20033;-66
2024/01/21 11:10:38;;;;;;;11.80;5.43;;;;;;;;;;5024876;28;20065;-66
2024/01/21 11:13:07;;;;;;;10.05;5.15;;;;;;;;;;5025002;28;20040;-66
2024/01/21 11:15:33;;;;;;;11.38;5.13;;;;;;;;;;5024719;28;20096;-65
2024/01/21 11:18:09;;;;;;;9.50;4.63;;;;;;;;;;5004385;28;20052;-65
2024/01/21 11:20:35;;;;;;;8.10;4.75;;;;;;;;;;5023658;28;20053;-66
2024/01/21 11:23:01;;;;;;;8.80;5.22;;;;;;;;;;5024941;28;20045;-65
2024/01/21 11:25:34;;;;;;;12.25;5.72;;;;;;;;;;5025747;28;20102;-65
2024/01/21 11:28:03;;;;;;;9.27;5.63;;;;;;;;;;5020890;28;20075;-66
2024/01/21 11:30:30;;;;;;;9.77;4.93;;;;;;;;;;5024113;28;20057;-66
2024/01/21 11:33:01;;;;;;;9.20;4.75;;;;;;;;;;5023149;28;20029;-65
2024/01/21 11:35:28;;;;;;;9.40;4.93;;;;;;;;;;5023707;28;20051;-65
2024/01/21 11:37:54;;;;;;;11.20;5.70;;;;;;;;;;5022235;28;20087;-66
2024/01/21 11:40:21;;;;;;;8.48;5.18;;;;;;;;;;5024481;28;21808;-66
2024/01/21 11:42:50;;;;;;;9.77;5.05;;;;;;;;;;5025409;28;20507;-66
2024/01/21 11:45:16;;;;;;;9.38;4.90;;;;;;;;;;5024546;28;20111;-66
2024/01/21 11:47:42;;;;;;;9.30;5.15;;;;;;;;;;5009677;28;20029;-66
2024/01/21 11:50:09;;;;;;;11.63;5.78;;;;;;;;;;5026383;28;20119;-66
2024/01/21 11:52:39;;;;;;;10.80;5.53;;;;;;;;;;5025622;28;20037;-65
2024/01/21 11:55:05;;;;;;;10.48;5.65;;;;;;;;;;5023488;28;20758;-66
2024/01/21 11:57:31;;;;;;;11.85;6.10;;;;;;;;;;5024648;28;20037;-66
2024/01/21 11:59:57;;;;;;;11.20;5.97;;;;;;;;;;5025364;28;20114;-66
2024/01/21 12:02:25;;;;;;;10.82;5.75;;;;;;;;;;5024744;28;20117;-66
2024/01/21 12:04:51;;;;;;;9.90;5.50;;;;;;;;;;5025634;28;20369;-65
2024/01/21 12:07:18;;;;;;;10.40;5.43;;;;;;;;;;5024326;28;20115;-66
2024/01/21 12:09:44;;;;;;;10.13;5.50;;;;;;;;;;5021278;28;20037;-65
2024/01/21 12:12:10;;;;;;;10.73;5.43;;;;;;;;;;5020271;28;20056;-65
2024/01/21 12:14:37;;;;;;;9.82;5.90;;;;;;;;;;5020052;28;20063;-67
2024/01/21 12:17:03;;;;;;;10.90;6.20;;;;;;;;;;5021947;28;20037;-66
2024/01/21 12:19:29;;;;;;;11.68;6.07;;;;;;;;;;5022028;28;20033;-65
2024/01/21 12:21:55;;;;;;;11.38;5.82;;;;;;;;;;5006108;28;20049;-65
2024/01/21 12:24:22;;;;;;;12.45;6.10;;;;;;;;;;5005946;28;20029;-65
2024/01/21 12:26:48;;;;;;;10.02;6.32;;;;;;;;;;5005806;28;20720;-65
2024/01/21 12:29:14;;;;;;;11.27;6.15;;;;;;;;;;5006655;28;20077;-65
2024/01/21 12:31:41;;;;;;;11.77;6.03;;;;;;;;;;5005915;28;20120;-65
2024/01/21 12:34:10;;;;;;;10.63;5.35;;;;;;;;;;5005816;28;20029;-65
2024/01/21 12:36:40;;;;;;;10.73;5.47;;;;;;;;;;5006258;28;20104;-66
2024/01/21 12:39:07;;;;;;;12.57;6.22;;;;;;;;;;5005703;28;20060;-65
2024/01/21 12:41:34;;;;;;;10.35;6.25;;;;;;;;;;5004982;28;20093;-65
2024/01/21 12:44:00;;;;;;;12.20;6.00;;;;;;;;;;5005035;28;20029;-65
2024/01/21 12:46:26;;;;;;;10.65;6.05;;;;;;;;;;5005347;28;20037;-66
2024/01/21 12:48:53;;;;;;;11.35;6.30;;;;;;;;;;5003395;28;20709;-65
2024/01/21 12:51:19;;;;;;;10.98;5.93;;;;;;;;;;5006422;28;20897;-66
2024/01/21 12:53:46;;;;;;;10.77;6.20;;;;;;;;;;5004485;28;20038;-65
2024/01/21 12:56:12;;;;;;;13.15;6.35;;;;;;;;;;5004951;28;20543;-65
2024/01/21 12:58:39;;;;;;;11.73;6.45;;;;;;;;;;5004229;28;20029;-65
2024/01/21 13:01:05;;;;;;;11.00;6.65;;;;;;;;;;5005856;28;20069;-66
2024/01/21 13:03:32;;;;;;;11.45;6.22;;;;;;;;;;5004368;28;20041;-66
2024/01/21 13:06:01;;;;;;;12.30;6.32;;;;;;;;;;5005063;28;20112;-66
2024/01/21 13:08:27;;;;;;;11.43;6.78;;;;;;;;;;5005047;28;20034;-66
2024/01/21 13:10:55;;;;;;;15.88;7.10;;;;;;;;;;4982926;28;20048;-66
2024/01/21 13:13:21;;;;;;;13.23;6.97;;;;;;;;;;5008016;28;20191;-66
2024/01/21 13:15:47;;;;;;;11.73;6.05;;;;;;;;;;5006925;28;20711;-66
2024/01/21 13:18:13;;;;;;;16.45;7.03;;;;;;;;;;4985369;28;21055;-66
2024/01/21 13:20:39;;;;;;;11.50;7.07;;;;;;;;;;5003547;28;20061;-66
2024/01/21 13:23:06;;;;;;;10.63;6.10;;;;;;;;;;5004132;28;20038;-66
2024/01/21 13:25:34;;;;;;;10.07;6.03;;;;;;;;;;5004935;28;20033;-65
2024/01/21 13:28:13;;;;;;;15.68;7.15;;;;;;;;;;5004958;28;21879;-66
2024/01/21 13:30:46;;;;;;;13.90;6.40;;;;;;;;;;5006430;28;20070;-66
2024/01/21 13:33:19;;;;;;;12.88;6.75;;;;;;;;;;5005520;28;20492;-66
2024/01/21 13:35:45;;;;;;;15.73;6.77;;;;;;;;;;5006090;28;20127;-65
2024/01/21 13:38:32;;;;;;;12.30;6.82;;;;;;;;;;5005166;28;20360;-66
2024/01/21 13:41:02;;;;;;;19.02;6.30;;;;;;;;;;5004093;28;20037;-65
2024/01/21 13:43:28;;;;;;;14.65;6.75;;;;;;;;;;4969812;28;20046;-67
2024/01/21 13:45:54;;;;;;;13.38;6.53;;;;;;;;;;4959657;28;20446;-66
2024/01/21 13:48:21;;;;;;;17.63;7.78;;;;;;;;;;4959781;28;20122;-65
2024/01/21 13:50:48;;;;;;;13.20;6.47;;;;;;;;;;4960670;28;20117;-65
2024/01/21 13:53:14;;;;;;;16.73;7.55;;;;;;;;;;4961236;28;20058;-66
2024/01/21 13:55:41;;;;;;;15.48;6.72;;;;;;;;;;4956781;28;21605;-65
2024/01/21 13:58:07;;;;;;;14.20;7.20;;;;;;;;;;4959839;28;20045;-65
2024/01/21 14:00:33;;;;;;;18.05;7.22;;;;;;;;;;4960114;28;20042;-65
2024/01/21 14:03:01;;;;;;;17.73;7.38;;;;;;;;;;4963361;28;20038;-65
2024/01/21 14:05:27;;;;;;;14.63;7.45;;;;;;;;;;4963708;28;20031;-66
2024/01/21 14:07:54;;;;;;;15.15;6.82;;;;;;;;;;4963327;28;20034;-66
2024/01/21 14:10:20;;;;;;;19.40;7.07;;;;;;;;;;4963695;28;20509;-66
2024/01/21 14:12:47;;;;;;;16.33;7.15;;;;;;;;;;4963844;28;20129;-66
2024/01/21 14:15:13;;;;;;;15.60;7.72;;;;;;;;;;4962636;28;20066;-66
2024/01/21 14:17:39;;;;;;;12.40;6.32;;;;;;;;;;4964842;28;20034;-66
2024/01/21 14:20:08;;;;;;;13.10;6.82;;;;;;;;;;4965984;28;20046;-65
2024/01/21 14:22:34;;;;;;;13.15;6.50;;;;;;;;;;4956257;28;20719;-66
2024/01/21 14:25:01;;;;;;;18.05;7.57;;;;;;;;;;4937860;28;21504;-66
2024/01/21 14:27:27;;;;;;;13.07;6.53;;;;;;;;;;4958739;28;20039;-66
2024/01/21 14:29:54;;;;;;;15.18;7.45;;;;;;;;;;4958897;28;20035;-66
2024/01/21 14:32:20;;;;;;;14.30;6.90;;;;;;;;;;4957903;28;20153;-66
2024/01/21 14:34:46;;;;;;;14.93;7.57;;;;;;;;;;4958431;28;20035;-66